createdAt,value
2022-08-02T00:03:36.432Z,21.77
2022-08-02T00:08:38.886Z,21.01
2022-08-02T00:13:41.337Z,20.79
2022-08-02T00:18:44.535Z,21.00
2022-08-02T00:24:27.475Z,20.85
2022-08-02T00:29:09.610Z,20.62
2022-08-02T00:34:30.178Z,20.57
2022-08-02T00:39:35.856Z,20.55
2022-08-02T00:44:38.385Z,20.55
2022-08-02T00:49:40.919Z,20.56
2022-08-02T00:54:43.483Z,20.53
2022-08-02T00:59:45.987Z,20.68
2022-08-02T01:04:48.386Z,21.00
2022-08-02T01:09:50.860Z,20.96
2022-08-02T01:14:57.008Z,20.90
2022-08-02T01:20:35.908Z,20.95
2022-08-02T01:26:07.488Z,20.87
2022-08-02T01:31:27.715Z,20.86
2022-08-02T01:36:41.925Z,20.97
2022-08-02T01:41:45.269Z,21.43
2022-08-02T01:46:50.255Z,21.29
2022-08-02T01:52:13.086Z,21.78
2022-08-02T01:57:17.195Z,21.76
2022-08-02T02:02:21.457Z,22.72
2022-08-02T02:07:24.871Z,23.17
2022-08-02T02:12:28.771Z,23.71
2022-08-02T02:17:52.680Z,23.91
2022-08-02T02:22:56.012Z,22.70
2022-08-02T02:28:04.049Z,22.66
2022-08-02T02:33:09.612Z,22.64
2022-08-02T02:38:16.597Z,23.54
2022-08-02T02:43:20.209Z,23.34
2022-08-02T02:48:24.034Z,23.45
2022-08-02T02:53:27.039Z,23.62
2022-08-02T02:58:30.163Z,22.84
2022-08-02T03:03:33.009Z,22.23
2022-08-02T03:08:35.528Z,21.64
2022-08-02T03:13:40.013Z,21.24
2022-08-02T03:18:44.359Z,20.98
2022-08-02T03:23:47.444Z,22.11
2022-08-02T03:28:49.906Z,22.62
2022-08-02T03:33:53.227Z,21.76
2022-08-02T03:38:57.124Z,21.78
2022-08-02T03:44:00.419Z,21.95
2022-08-02T03:49:03.444Z,22.42
2022-08-02T03:54:06.586Z,21.80
2022-08-02T03:59:14.423Z,22.23
2022-08-02T04:04:16.836Z,23.07
2022-08-02T04:09:19.432Z,22.98
2022-08-02T04:14:22.881Z,22.37
2022-08-02T04:19:32.696Z,22.58
2022-08-02T04:24:47.485Z,22.57
2022-08-02T04:29:53.431Z,23.37
2022-08-02T04:35:18.180Z,23.56
2022-08-02T04:40:18.873Z,23.82
2022-08-02T04:45:23.344Z,23.24
2022-08-02T04:50:25.912Z,23.21
2022-08-02T04:55:31.145Z,22.91
2022-08-02T05:00:34.109Z,21.77
2022-08-02T05:05:36.692Z,21.76
2022-08-02T05:10:39.214Z,21.46
2022-08-02T05:15:41.623Z,21.16
2022-08-02T05:20:44.070Z,21.16
2022-08-02T05:25:46.510Z,22.63
2022-08-02T05:30:48.539Z,23.30
2022-08-02T05:35:51.749Z,22.69
2022-08-02T05:40:54.624Z,22.61
2022-08-02T05:45:57.162Z,22.97
2022-08-02T05:51:05.968Z,23.74
2022-08-02T05:56:31.816Z,24.03
2022-08-02T06:01:40.825Z,24.26
2022-08-02T06:06:44.874Z,24.48
2022-08-02T06:12:01.941Z,24.71
2022-08-02T06:17:14.697Z,24.78
2022-08-02T06:22:33.903Z,24.90
2022-08-02T06:27:41.722Z,25.15
2022-08-02T06:32:45.462Z,25.17
2022-08-02T06:38:03.982Z,25.16
2022-08-02T06:43:14.777Z,25.29
2022-08-02T06:48:16.943Z,25.50
2022-08-02T06:53:19.042Z,25.62
2022-08-02T06:58:21.249Z,25.80
2022-08-02T07:03:25.735Z,25.89
2022-08-02T07:08:32.419Z,26.03
2022-08-02T07:13:39.563Z,26.13
2022-08-02T07:18:42.365Z,26.23
2022-08-02T07:23:44.811Z,26.54
2022-08-02T07:28:47.284Z,26.90
2022-08-02T07:33:49.735Z,26.87
2022-08-02T07:38:53.001Z,26.96
2022-08-02T07:43:55.880Z,27.23
2022-08-02T07:48:58.475Z,27.26
2022-08-02T07:54:02.169Z,27.56
2022-08-02T07:59:06.551Z,27.73
2022-08-02T08:04:09.104Z,27.92
2022-08-02T08:09:12.144Z,27.93
2022-08-02T08:14:16.991Z,27.99
2022-08-02T08:19:19.644Z,28.30
2022-08-02T08:24:42.136Z,28.51
2022-08-02T08:29:46.031Z,29.18
2022-08-02T08:34:49.457Z,29.26
2022-08-02T08:39:56.856Z,29.26
2022-08-02T08:45:01.235Z,29.22
2022-08-02T08:50:06.067Z,29.83
2022-08-02T08:55:12.084Z,31.07
2022-08-02T09:00:16.565Z,30.99
2022-08-02T09:05:19.356Z,30.93
2022-08-02T09:10:41.686Z,30.92
2022-08-02T09:15:46.691Z,31.08
2022-08-02T09:20:57.542Z,31.54
2022-08-02T09:26:07.617Z,31.41
2022-08-02T09:31:11.512Z,32.35
2022-08-02T09:36:16.328Z,32.76
2022-08-02T09:41:27.286Z,32.06
2022-08-02T09:46:33.466Z,33.17
2022-08-02T09:52:02.296Z,31.71
2022-08-02T09:57:05.128Z,30.70
2022-08-02T10:02:17.007Z,32.13
2022-08-02T10:07:22.484Z,33.85
2022-08-02T10:12:25.592Z,35.04
2022-08-02T10:17:28.247Z,34.98
2022-08-02T10:22:32.339Z,35.12
2022-08-02T10:28:03.791Z,36.05
2022-08-02T10:33:03.574Z,37.63
2022-08-02T10:38:11.049Z,38.11
2022-08-02T10:43:34.201Z,37.45
2022-08-02T10:54:47.476Z,35.01
2022-08-02T10:59:52.621Z,32.47
2022-08-02T11:04:55.392Z,30.49
2022-08-02T11:09:59.417Z,30.05
2022-08-02T11:15:07.348Z,29.80
2022-08-02T11:20:13.358Z,29.74
2022-08-02T11:25:24.926Z,32.44
2022-08-02T11:30:29.432Z,35.83
2022-08-02T11:35:34.595Z,36.98
2022-08-02T11:40:40.473Z,37.95
2022-08-02T11:45:42.958Z,38.41
2022-08-02T11:50:46.157Z,38.62
2022-08-02T11:55:48.726Z,39.26
2022-08-02T12:00:53.427Z,39.62
2022-08-02T12:06:05.977Z,39.35
2022-08-02T12:11:09.497Z,39.99
2022-08-02T12:16:32.283Z,38.53
2022-08-02T12:21:34.888Z,34.83
2022-08-02T12:26:47.823Z,33.53
2022-08-02T12:31:56.349Z,31.95
2022-08-02T12:37:05.406Z,31.26
2022-08-02T12:42:10.555Z,31.09
2022-08-02T12:47:16.522Z,30.64
2022-08-02T12:52:24.075Z,33.73
2022-08-02T12:57:26.833Z,37.88
2022-08-02T13:02:31.653Z,39.14
2022-08-02T13:07:34.309Z,38.85
2022-08-02T13:12:39.427Z,38.96
2022-08-02T13:17:42.232Z,39.33
2022-08-02T13:22:47.036Z,38.93
2022-08-02T13:27:55.730Z,39.23
2022-08-02T13:33:01.105Z,37.27
2022-08-02T13:38:06.563Z,36.72
2022-08-02T13:43:09.046Z,35.40
2022-08-02T13:48:18.395Z,33.21
2022-08-02T13:53:22.150Z,32.56
2022-08-02T13:58:24.753Z,33.54
2022-08-02T14:04:08.273Z,35.59
2022-08-02T14:08:50.185Z,35.06
2022-08-02T14:13:52.715Z,34.65
2022-08-02T14:18:55.268Z,33.41
2022-08-02T14:23:57.715Z,32.80
2022-08-02T14:29:00.260Z,34.55
2022-08-02T14:34:03.047Z,34.52
2022-08-02T14:39:05.804Z,33.24
2022-08-02T14:44:08.473Z,33.65
2022-08-02T14:49:14.471Z,32.59
2022-08-02T14:54:31.343Z,33.38
2022-08-02T14:59:33.895Z,33.29
2022-08-02T15:04:43.139Z,33.87
2022-08-02T15:09:45.974Z,33.08
2022-08-02T15:14:48.485Z,33.13
2022-08-02T15:19:57.458Z,34.23
2022-08-02T15:25:03.664Z,34.29
2022-08-02T15:30:17.001Z,33.63
2022-08-02T15:35:19.463Z,32.51
2022-08-02T15:40:24.194Z,32.07
2022-08-02T15:45:27.924Z,32.20
2022-08-02T15:50:30.603Z,32.42
2022-08-02T15:55:40.108Z,32.82
2022-08-02T16:00:55.681Z,32.51
2022-08-02T16:05:58.243Z,31.85
2022-08-02T16:11:00.733Z,31.18
2022-08-02T16:16:03.323Z,30.89
2022-08-02T16:21:05.767Z,30.91
2022-08-02T16:26:08.221Z,30.69
2022-08-02T16:31:11.646Z,30.43
2022-08-02T16:36:15.499Z,30.84
2022-08-02T16:41:22.686Z,30.58
2022-08-02T16:46:25.187Z,30.32
2022-08-02T16:51:27.749Z,30.09
2022-08-02T16:56:33.616Z,30.20
2022-08-02T17:02:03.173Z,30.43
2022-08-02T17:06:58.731Z,30.17
2022-08-02T17:12:01.669Z,30.38
2022-08-02T17:17:04.327Z,30.13
2022-08-02T17:22:06.863Z,29.64
2022-08-02T17:27:13.433Z,29.54
2022-08-02T17:32:18.887Z,29.79
2022-08-02T17:37:21.902Z,29.91
2022-08-02T17:42:25.036Z,29.76
2022-08-02T17:47:30.609Z,29.71
2022-08-02T17:52:50.382Z,29.74
2022-08-02T17:57:58.506Z,29.66
2022-08-02T18:03:05.479Z,29.62
2022-08-02T18:08:08.781Z,29.31
2022-08-02T18:13:11.222Z,29.12
2022-08-02T18:18:19.217Z,29.10
2022-08-02T18:23:32.587Z,29.18
2022-08-02T18:28:40.444Z,29.24
2022-08-02T18:33:59.675Z,29.24
2022-08-02T18:39:08.454Z,29.09
2022-08-02T18:44:15.781Z,29.00
2022-08-02T18:49:19.022Z,28.90
2022-08-02T18:54:26.826Z,28.80
2022-08-02T18:59:37.622Z,28.64
2022-08-02T19:04:43.678Z,28.42
2022-08-02T19:09:49.726Z,28.44
2022-08-02T19:14:52.670Z,28.43
2022-08-02T19:19:56.232Z,28.40
2022-08-02T19:24:59.972Z,28.37
2022-08-02T19:30:07.702Z,28.21
2022-08-02T19:35:19.542Z,28.21
2022-08-02T19:40:32.738Z,28.08
2022-08-02T19:45:49.725Z,27.65
2022-08-02T19:50:56.816Z,27.37
2022-08-02T19:56:04.113Z,27.48
2022-08-02T20:01:07.712Z,27.33
2022-08-02T20:06:19.964Z,27.10
2022-08-02T20:11:35.131Z,27.46
2022-08-02T20:16:37.947Z,27.52
2022-08-02T20:21:50.509Z,27.22
2022-08-02T20:26:59.257Z,27.47
2022-08-02T20:32:24.150Z,27.58
2022-08-02T20:37:59.191Z,27.46
2022-08-02T20:42:49.213Z,27.35
2022-08-02T20:47:54.484Z,27.08
2022-08-02T20:52:57.148Z,27.24
2022-08-02T20:58:02.695Z,27.30
2022-08-02T21:03:06.543Z,27.13
2022-08-02T21:08:13.782Z,27.20
2022-08-02T21:13:22.183Z,27.24
2022-08-02T21:18:40.955Z,27.22
2022-08-02T21:23:44.922Z,26.98
2022-08-02T21:28:57.197Z,27.00
2022-08-02T21:34:00.998Z,27.00
2022-08-02T21:39:09.330Z,26.92
2022-08-02T21:44:12.317Z,26.77
2022-08-02T21:49:16.258Z,26.82
2022-08-02T21:54:22.109Z,26.80
2022-08-02T21:59:26.156Z,26.82
2022-08-02T22:04:29.677Z,26.83
2022-08-02T22:09:43.256Z,26.67
2022-08-02T22:14:55.009Z,26.36
2022-08-02T22:19:59.243Z,26.36
2022-08-02T22:25:04.230Z,26.38
2022-08-02T22:30:07.507Z,26.50
2022-08-02T22:35:12.394Z,26.49
2022-08-02T22:40:15.031Z,26.28
2022-08-02T22:45:17.516Z,25.74
2022-08-02T22:50:20.543Z,25.26
2022-08-02T22:55:23.573Z,25.50
2022-08-02T23:00:26.903Z,26.03
2022-08-02T23:05:29.438Z,26.08
2022-08-02T23:10:32.331Z,25.97
2022-08-02T23:15:54.712Z,25.98
2022-08-02T23:20:57.147Z,25.93
2022-08-02T23:25:59.659Z,25.95
2022-08-02T23:31:22.036Z,25.82
2022-08-02T23:36:24.496Z,26.08
2022-08-02T23:41:28.322Z,25.73
2022-08-02T23:46:30.790Z,25.10
2022-08-02T23:51:33.216Z,25.26
2022-08-02T23:56:35.892Z,25.57
